Aviation Digital Data Service (ADDS)

Output produced by METARs form (0345 UTC 23 November 2017)
found at http://www.aviationweather.gov/adds/metars/
 
UNAA 230330Z 07001MPS 3200 BR BKN041 M03/M03 Q1029 R02/590130 NOSIG RMK QFE749
TAF UNAA 230200Z 2303/2403 24002MPS 2100 BR SCT030 
     TEMPO 2303/2306 0500 FZFG SCT004 BKN030 
     BECMG 2306/2307 9999 NSW
       
URWA 230330Z 29005MPS CAVOK M01/M03 Q1013 R27/010070 NOSIG RMK QFE762/1016
TAF URWA 230200Z 2303/2312 26005G10MPS 9999 SCT020
       
USCC 230330Z 14004MPS CAVOK M02/M03 Q1017 R09/120055 NOSIG RMK QFE742
TAF USCC 230200Z 2303/2403 14005MPS 5000 BR FU SCT020CB 
     TEMPO 2303/2306 3100 -FZRA BR BKN011CB
       
UNBB 230330Z 15002MPS CAVOK M05/M08 Q1031 R24/920550 NOSIG RMK QFE751
TAF UNBB 230200Z 2303/2403 19003G08MPS 9999 SCT020 
     TEMPO 2303/2305 VRB01MPS 2000 BR FU SCT003 SCT020 
     TEMPO 2315/2403 VRB01MPS 1200 BR FU SCT002 SCT020
       
UWKE 230330Z 12005MPS CAVOK 03/M01 Q1005 R03/190060 NOSIG RMK QFE737/0982
TAF UWKE 230145Z 2303/2403 14003G09MPS 4000 BR OVC011 
     TEMPO 2303/2309 16006G12MPS 0500 -RA FG OVC002 
     TEMPO 2309/2318 16006G12MPS 1000 SHRA BKN003 BKN015CB
       
UUOB 230330Z 30007MPS 9999 BKN033 M02/M05 Q1013 R29/410555 NOSIG
TAF UUOB 230200Z 2303/2312 32008G13MPS 4000 -SN OVC011
       
USPP 230330Z 12004MPS CAVOK 00/M03 Q1009 R21/090060 NOSIG RMK QFE746
TAF USPP 230158Z 2303/2403 13004MPS CAVOK 
     TEMPO 2303/2306 3100 -SN SCT011 OVC100
       
UIBB 230330Z 00000MPS 8000 SCT009 M22/M25 Q1026 R30/490534 NOSIG RMK QBB290 QFE726/0968
TAF UIBB 230200Z 2303/2403 07003MPS 9999 SCT011
       
UUBP 230300Z 30005MPS 9999 OVC035 M01/M05 Q1015 R34/CLRD70 NOSIG RMK QFE743/0991
UWKS 230330Z 05001MPS 5000 BR OVC006 00/00 Q1004 R06/290250 NOSIG RMK QFE738
TAF UWKS 230153Z 2303/2312 05003MPS 2100 BR OVC006 
     TEMPO 2303/2307 0500 +DZ FG OVC003 
     BECMG 2307/2309 33003G08MPS 3100 -SHSNRA OVC011 BKN015CB
       
UUOO 230330Z 33006MPS 6000 -SN OVC022 M02/M05 Q1009 R30/290239 NOSIG RMK QFE743
TAF UUOO 230200Z 2303/2312 32008MPS 3500 -SN BR OVC011
       
UEEE 230330Z 00000MPS 1500 R23L/1500U BR NSC M36/M40 Q1018 R23L/490150 NOSIG RMK QFE755
TAF UEEE 230200Z 2303/2409 VRB01MPS 0500 FG VV004 
     TEMPO 2303/2312 1500 BR SCT020 BKN100
       
UUDD 230330Z 34008MPS 9999 OVC017 M02/M06 Q1012 R32L/190095 NOSIG
TAF UUDD 230155Z 2303/2409 34008MPS 9999 BKN012 TXM02/2310Z TNM07/2403Z 
     TEMPO 2303/2315 34013MPS 
     BECMG 2318/2320 36003MPS 
     PROB40 
     TEMPO 2322/2407 0300 FZFG SCT003
       
URWW 230330Z 24007MPS 9999 OVC009 M01/M02 Q1009 R24/010070 NOSIG RMK OBST OBSC
TAF URWW 230157Z 2303/2312 25007G12MPS 9999 BKN011 BKN020CB 
     TEMPO 2303/2312 28005G10MPS 3100 -SHSN BKN007 BKN020CB
       
UHBB 230330Z 02003MPS CAVOK M15/M21 Q1012 R36/490245 NOSIG RMK QFE742/0989
TAF UHBB 230137Z 2303/2403 35003MPS CAVOK
       
UIII 230330Z 30003MPS 1400 R30/1400D SHSN OVC012CB M06/M08 Q1023 R30/490335 NOSIG RMK QFE722/0963
TAF UIII 230200Z 2303/2403 32005MPS 3100 -SHSN BKN011CB 
     TEMPO 2303/2307 32011MPS 0900 +SHSN BLSN VV003
       
UIAA 230330Z VRB01MPS 9999 NSC M15/M21 Q1016 R29/70D NOSIG RMK QFE704/0938
TAF UIAA 230200Z 2303/2403 28003G08MPS 9999 SCT040CB
       
UNEE 230330Z 17003MPS CAVOK M07/M09 Q1029 R23/891032 NOSIG RMK QFE749
TAF UNEE 230200Z 2303/2403 17003MPS CAVOK
       
USCC 230330Z 14004MPS CAVOK M02/M03 Q1017 R09/120055 NOSIG RMK QFE742
TAF USCC 230200Z 2303/2403 14005MPS 5000 BR FU SCT020CB 
     TEMPO 2303/2306 3100 -FZRA BR BKN011CB
       
USCM 230330Z 01002MPS 5000 BR NSC M05/M06 Q1015 R36/090060 NOSIG RMK QFE722
TAF USCM 230200Z 2303/2312 12003MPS 3100 BR OVC011 
     TEMPO 2303/2312 02003MPS 0300 -FZRA FZFG VV002
       
USHH 230330Z 13002MPS CAVOK M12/M13 Q1020 R06/350048 TEMPO 1000 SN BR OVC002 RMK QFE761
TAF USHH 230157Z 2303/2403 12003G08MPS 3100 -SN BR SCT004 BKN011 
     TEMPO 2303/2312 0700 FZFG VV002
       
USNN 230330Z VRB01MPS CAVOK M13/M13 Q1022 R21/39//35 NOSIG RMK QFE762
TAF USNN 230200Z 2303/2403 20003MPS 2000 BR SCT007 BKN050 
     TEMPO 2303/2306 BKN003
       
USPP 230330Z 12004MPS CAVOK 00/M03 Q1009 R21/090060 NOSIG RMK QFE746
TAF USPP 230158Z 2303/2403 13004MPS CAVOK 
     TEMPO 2303/2306 3100 -SN SCT011 OVC100
       
USRR 230330Z VRB01MPS 6000 FEW003 M10/M11 Q1021 R25/39//35 TEMPO 0200 FZFG VV001 RMK QBB110 OBST OBSC QFE761
TAF USRR 230155Z 2303/2403 VRB01MPS 0800 FZFG VV003 
     TEMPO 2303/2306 0200 FZFG VV001 
     FM230600 18003MPS 9999 BKN011 
     TEMPO 2306/2309 3100 BR SCT005
       
USSS 230330Z 12002MPS CAVOK M03/M04 Q1015 R26R/290039 NOSIG RMK QFE740/0987
TAF AMD USSS 230216Z 2303/2403 13006MPS 5000 -SHRASN BKN011CB BKN070 
     TEMPO 2303/2315 17011MPS
       
USTR 230330Z 18005MPS CAVOK M04/M06 Q1020 R12/CLRD65 NOSIG RMK QFE756/1008
TAF COR USTR 230159Z 2303/2403 16007MPS 9999 SCT011 BKN020CB 
     TEMPO 2303/2306 3100 -FZDZ BR SCT005 BKN015CB 
     TEMPO 2306/2315 17007G13MPS
       
UHSS 230330Z 31004MPS 9999 FEW020CB 02/M03 Q1002 R01/290060 NOSIG RMK MT OBSC QFE750/1000
TAF UHSS 230200Z 2303/2409 30004MPS 9999 BKN020CB OVC100 
     TEMPO 2303/2306 1400 SHSN BR BKN004 BKN017CB 
     BECMG 2322/2224 30007MPS
       
UMKK 230330Z 17006MPS 3700 -DZ BR OVC004 04/03 Q1010 R24/19//60 NOSIG RMK QBB120 OBST OBSC QFE756/1008
TAF UMKK 230200Z 2303/2403 17005G10MPS 3100 BR BKN005 
     TEMPO 2303/2307 0500 -DZ FG OVC002 
     BECMG 2307/2309 18007G12MPS 4000 BR 
     TEMPO 2307/2315 BKN003 
     BECMG 2315/2317 6000 NSW BKN011 
     BECMG 2321/2323 19005G10MPS
       
UHWW 230330Z 30004MPS 270V340 9999 NSC M02/M18 Q1011 R25L/0///70 NOSIG RMK QFE757
TAF UHWW 230155Z 2303/2403 30003MPS 9999 NSC 
     TEMPO 2303/2309 31011MPS SCT030CB 
     BECMG 2312/2314 35003MPS
       
USSS 230330Z 12002MPS CAVOK M03/M04 Q1015 R26R/290039 NOSIG RMK QFE740/0987
TAF AMD USSS 230216Z 2303/2403 13006MPS 5000 -SHRASN BKN011CB BKN070 
     TEMPO 2303/2315 17011MPS
       
UNKL 230330Z 00000MPS 2600 -SHSN BKN030CB M03/M04 Q1026 R29/490232 NOSIG RMK QFE743
TAF UNKL 230152Z 2303/2403 25003G09MPS 4000 -SHSN BKN013CB 
     TEMPO 2303/2309 0500 +SHSN VV002 
     TEMPO 2309/2315 1000 SHSN 
     TEMPO 2315/2403 0500 +SHSN VV002
       
UUOK 230330Z 32006MPS 9999 -SN OVC028 M01/M05 Q1013 R30/CLRD65 NOSIG RMK QFE741/0989
TAF UUOK 230200Z 2303/2312 33006G11MPS 6000 BKN011 
     TEMPO 2303/2309 -SN
       
UWWW 230330Z 11003MPS 9999 -RA BKN011 03/03 Q1003 R23/290150 NOSIG RMK QFE741/0988
TAF UWWW 230200Z 2303/2403 16003G08MPS 3100 -RA BR OVC007 TX04/2311Z TN02/2401Z 
     TEMPO 2303/2308 18005G12MPS 0400 DZ FG VV003 
     FM230800 23003G09MPS 9999 OVC011 
     TEMPO 2308/2403 27006G12MPS 1000 SHRA BR SCT004 BKN011CB
       
USCM 230330Z 01002MPS 5000 BR NSC M05/M06 Q1015 R36/090060 NOSIG RMK QFE722
TAF USCM 230200Z 2303/2312 12003MPS 3100 BR OVC011 
     TEMPO 2303/2312 02003MPS 0300 -FZRA FZFG VV002
       
USCC 230330Z 14004MPS CAVOK M02/M03 Q1017 R09/120055 NOSIG RMK QFE742
TAF USCC 230200Z 2303/2403 14005MPS 5000 BR FU SCT020CB 
     TEMPO 2303/2306 3100 -FZRA BR BKN011CB
       
USCM 230330Z 01002MPS 5000 BR NSC M05/M06 Q1015 R36/090060 NOSIG RMK QFE722
TAF USCM 230200Z 2303/2312 12003MPS 3100 BR OVC011 
     TEMPO 2303/2312 02003MPS 0300 -FZRA FZFG VV002
       
USHH 230330Z 13002MPS CAVOK M12/M13 Q1020 R06/350048 TEMPO 1000 SN BR OVC002 RMK QFE761
TAF USHH 230157Z 2303/2403 12003G08MPS 3100 -SN BR SCT004 BKN011 
     TEMPO 2303/2312 0700 FZFG VV002
       
USNN 230330Z VRB01MPS CAVOK M13/M13 Q1022 R21/39//35 NOSIG RMK QFE762
TAF USNN 230200Z 2303/2403 20003MPS 2000 BR SCT007 BKN050 
     TEMPO 2303/2306 BKN003
       
USPP 230330Z 12004MPS CAVOK 00/M03 Q1009 R21/090060 NOSIG RMK QFE746
TAF USPP 230158Z 2303/2403 13004MPS CAVOK 
     TEMPO 2303/2306 3100 -SN SCT011 OVC100
       
USRR 230330Z VRB01MPS 6000 FEW003 M10/M11 Q1021 R25/39//35 TEMPO 0200 FZFG VV001 RMK QBB110 OBST OBSC QFE761
TAF USRR 230155Z 2303/2403 VRB01MPS 0800 FZFG VV003 
     TEMPO 2303/2306 0200 FZFG VV001 
     FM230600 18003MPS 9999 BKN011 
     TEMPO 2306/2309 3100 BR SCT005
       
USSS 230330Z 12002MPS CAVOK M03/M04 Q1015 R26R/290039 NOSIG RMK QFE740/0987
TAF AMD USSS 230216Z 2303/2403 13006MPS 5000 -SHRASN BKN011CB BKN070 
     TEMPO 2303/2315 17011MPS
       
USTR 230330Z 18005MPS CAVOK M04/M06 Q1020 R12/CLRD65 NOSIG RMK QFE756/1008
TAF COR USTR 230159Z 2303/2403 16007MPS 9999 SCT011 BKN020CB 
     TEMPO 2303/2306 3100 -FZDZ BR SCT005 BKN015CB 
     TEMPO 2306/2315 17007G13MPS
       
UIUU 230330Z VRB01MPS 5000 BR FU FEW040 M12/M14 Q1021 R26/491050 NOSIG RMK QFE721/0962
TAF UIUU 230200Z 2303/2403 30003G08MPS 3100 -SHSN BR BKN019CB 
     TEMPO 2303/2312 1200 SHSN VV007
       
ULMM 230330Z 00000MPS 8000 -SHSN BKN006 BKN013CB M21/M24 Q1025 R31/490250 NOSIG RMK OBST OBSC QFE761
TAF ULMM 230150Z 2303/2403 14003MPS 6000 BKN006 BKN011 
     TEMPO 2303/2317 18002MPS 3100 -SHSN BR BKN003 BKN011CB 
     BECMG 2317/2319 BKN011 
     TEMPO 2319/2403 11003MPS 3100 -SHSN BKN006 BKN011CB
       
TAF URMN 230200Z 2303/2312 02003G08MPS 3100 -SHSNRA SCT005 BKN015CB 
     TEMPO 2303/2309 0500 FG BKN002 BKN015CB
       
USNN 230330Z VRB01MPS CAVOK M13/M13 Q1022 R21/39//35 NOSIG RMK QFE762
TAF USNN 230200Z 2303/2403 20003MPS 2000 BR SCT007 BKN050 
     TEMPO 2303/2306 BKN003
       
UHHH 230330Z 25005MPS CAVOK M12/M20 Q1008 R23L/850350 NOSIG RMK QFE750/1000
TAF UHHH 230148Z 2303/2409 25003MPS CAVOK 
     TEMPO 2303/2318 28006MPS
       
UWOO 230330Z 10005MPS CAVOK 01/M05 Q1009 R08/65D NOSIG RMK QFE746/0995
TAF UWOO 230200Z 2303/2403 10007G13MPS 9999 BKN015 SCT020CB TX05/2310Z TN00/2401Z 
     TEMPO 2303/2312 12010MPS 3100 -SHRA BR BKN011 BKN015CB 
     TEMPO 2312/2403 05003G08MPS 3100 -SHRA BR BKN011CB
       
UWOR 230300Z 11004MPS CAVOK M04/M06 Q1012 R07/910155 NOSIG RMK QFE734/0979
TAF UWOR 230200Z 2303/2312 11007G12MPS 9999 SCT020CB 
     TEMPO 2303/2312 14012MPS 3100 -SHRASN BR BKN011 BKN015CB
       
URKK 230330Z 33003MPS 9999 BKN037 01/M01 Q1015 R23L/CLRD70 TEMPO 2000 BR RMK QFE758
TAF URKK 230153Z 2303/2403 30003G08MPS 9999 BKN020CB 
     TEMPO 2303/2306 3100 -SHSN BR BKN011 BKN020CB 
     TEMPO 2306/2315 26007G12MPS 3100 -SHRASN BKN011 BKN020CB
       
ULOO 230300Z AUTO VRB01MPS 8000 // ///020/// M02/M02 Q1019 RMK QFE760
ULLI 230330Z 12003MPS 9999 OVC022 M03/M07 Q1020 R10R/090060 NOSIG
TAF ULLI 230156Z 2303/2403 05003G08MPS 9999 BKN011 BKN020 
     BECMG 2306/2308 12004G09MPS 
     BECMG 2318/2320 15007G12MPS 4000 -SN BLSN
       
USTR 230330Z 18005MPS CAVOK M04/M06 Q1020 R12/CLRD65 NOSIG RMK QFE756/1008
TAF COR USTR 230159Z 2303/2403 16007MPS 9999 SCT011 BKN020CB 
     TEMPO 2303/2306 3100 -FZDZ BR SCT005 BKN015CB 
     TEMPO 2306/2315 17007G13MPS
       
URRR 230330Z 28003MPS 250V310 8000 SCT048 M01/M04 Q1013 R22/CLRD70 NOSIG RMK QFE752/1003
TAF URRR 230157Z 2303/2403 28006G12MPS 9999 SCT015 SCT020CB 
     TEMPO 2303/2306 26003G08MPS 3100 -SHSN BR SCT011 BKN020CB 
     FM230600 30006G12MPS 3100 -SHSN BR SCT011 BKN020CB 
     TEMPO 2306/2318 27003G08MPS
       
UUEE 230330Z 32007MPS 9999 OVC013 M03/M06 Q1013 R24R/190057 R24L/190057 NOSIG
TAF UUEE 230156Z 2303/2403 32007MPS 9999 OVC011 TXM04/2312Z TNM07/2403Z 
     TEMPO 2303/2316 31013MPS BKN008 
     BECMG 2319/2321 36002MPS
       
URMT 230330Z 33003MPS 3000 -SHSN SCT023CB M03/M03 Q1011 R07/510150 NOSIG RMK QFE719
TAF URMT 230200Z 2303/2312 28003G08MPS 9999 SCT020CB 
     TEMPO 2303/2309 3100 -SHSN BR BKN007 BKN020CB
       
URSS 230330Z 31005MPS 9000 -SHRA OVC020CB 04/02 Q1009 WS ALL RWY R06/210350 R02/210350 NOSIG RMK R02/31002G06MPS MT OBSC QFE756
TAF URSS 230157Z 2303/2403 05006MPS 9999 -SHRA SCT030CB BKN100 
     TEMPO 2303/2312 VRB08G14MPS 1000 TSRASN BKN007 BKN020CB BKN100 
     BECMG 2312/2313 30007G12MPS 
     BECMG 2315/2317 05005MPS
       
UHMM 230330Z 00000MPS 9999 SCT040 M16/M17 Q1008 R10/490531 NOSIG RMK QFE741
TAF UHMM 230150Z 2303/2409 09003G08MPS 9999 -SHSN SCT016 OVC025CB 
     TEMPO 2303/2310 1000 SHSN VV005 
     FM231600 02003G08MPS 3100 -SHSN VV011 
     TEMPO 2319/2409 36006G13MPS 0600 +SHSN BLSN VV004
       
UWGG 230330Z 31005MPS 9000 -SN OVC008 M01/M02 Q1006 R36L/290050 TEMPO 1000 SN RMK QFE748
TAF UWGG 230159Z 2303/2403 33005G12MPS 5000 -SHSN BR OVC007 BKN012CB TXM01/2303Z TNM05/2321Z 
     TEMPO 2303/2308 1500 FZRA BR VV004 
     BECMG 2308/2309 BKN011 BKN015CB
       
USRR 230330Z VRB01MPS 6000 FEW003 M10/M11 Q1021 R25/39//35 TEMPO 0200 FZFG VV001 RMK QBB110 OBST OBSC QFE761
TAF USRR 230155Z 2303/2403 VRB01MPS 0800 FZFG VV003 
     TEMPO 2303/2306 0200 FZFG VV001 
     FM230600 18003MPS 9999 BKN011 
     TEMPO 2306/2309 3100 BR SCT005
       
UUYY 230330Z 12002MPS 110V210 9999 OVC033 M03/M04 Q1007 R01/19//51 NOSIG RMK QFE746/0995
TAF UUYY 230200Z 2303/2403 14003G08MPS 3100 -SHSN BR BKN011 BKN015CB 
     TEMPO 2303/2316 VRB01MPS 1000 SHSN BR BKN005 BKN012CB 
     TEMPO 2316/2403 VRB01MPS 0300 FZFG BKN003
       
ULAA 230330Z 34003MPS 310V020 9999 SCT020 M08/M09 Q1018 R08/910355 NOSIG RMK QFE763/1017
TAF ULAA 230159Z 2303/2403 35003MPS 6000 BKN012 
     TEMPO 2303/2309 02003G09MPS 3100 -SN BKN011 
     TEMPO 2309/2318 33006MPS
       
UEEE 230330Z 00000MPS 1500 R23L/1500U BR NSC M36/M40 Q1018 R23L/490150 NOSIG RMK QFE755
TAF UEEE 230200Z 2303/2409 VRB01MPS 0500 FG VV004 
     TEMPO 2303/2312 1500 BR SCT020 BKN100
       
UNNT 230330Z 17004MPS CAVOK M08/M11 Q1031 R25/820145 R16/820147 NOSIG RMK QFE763/1017
TAF UNNT 230200Z 2303/2403 19003G08MPS 9999 BKN020 
     TEMPO 2303/2315 15003MPS 
     TEMPO 2315/2403 3100 FU BR BKN011
       
UNOO 230330Z 14002MPS CAVOK M10/M12 Q1028 R25/CLRD60 NOSIG RMK QFE763
TAF UNOO 230132Z 2303/2403 17003G08MPS 6000 SCT020
       
UWSS 230330Z 26003MPS 5000 DZ BR BKN008 OVC017 03/02 Q1002 R30/210355 NOSIG RMK OBST OBSC QFE738
TAF UWSS 230200Z 2303/2312 25004MPS 3100 BR BKN011 
     TEMPO 2303/2312 29007MPS 1000 SHSNRA BR BKN004 BKN020CB
       
UUDL 230330Z 32004MPS 9000 OVC015 M05/M08 Q1012 R23/491031 NOSIG RMK QFE751
TAF UUDL 230200Z 2303/2403 32005MPS 9999 OVC012 
     BECMG 2317/2319 36003MPS
       
UWUU 230330Z 10002MPS CAVOK 02/M04 Q1009 R14R/0///60 NOSIG RMK QFE747/0996
TAF UWUU 230154Z 2303/2403 11005MPS 9999 SCT030 
     TEMPO 2303/2315 14006G11MPS 
     TEMPO 2315/2403 17003G08MPS
       
UHMA 230330Z 31010G13MPS 0400 R01/0750 +SN BLSN VV005 M11/M13 Q1002 R88/79//32 NOSIG RMK END R01/31009MPS QFE748/0997
TAF UHMA 230153Z 2303/2403 34010G15MPS 0700 +SN BLSN BKN002 BKN020 
     TEMPO 2303/2309 30013G18MPS 0100 +SHSN BLSN VV001 
     FM230900 27008G13MPS 9999 DRSN SCT020 
     TEMPO 2309/2321 27011G16MPS 4000 BLSN
       
URML 230330Z 20002MPS 9999 NSC 03/M01 Q1014 R32/01//70 NOSIG RMK QFE760/1014
TAF URML 230200Z 2303/2312 27003G10MPS 6000 BKN020
       
URKA 230330Z AUTO 35002MPS 9999 // ///022/// 01/00 Q1015 RMK QFE757/1010
TAF URKA 230152Z 2303/2403 02003G08MPS 9999 SCT020CB 
     TEMPO 2303/2318 3100 -SHRASN BR BKN011 BKN020CB
       
UUWW 230330Z 34007MPS 9999 OVC017 M03/M07 Q1014 R01/290042 NOSIG
TAF UUWW 230152Z 2303/2403 33007MPS 9999 BKN015 TXM03/2303Z TNM08/2403Z 
     TEMPO 2303/2315 33013MPS -SN OVC009 
     BECMG 2318/2320 35002MPS
       
UWLW 230300Z 00000MPS 8000 OVC027 M00/M01 Q1003 R20/CLRD60 NOSIG RMK QFE747
TAF UWLW 230145Z 2303/2403 10003MPS 5000 BR BKN015 
     TEMPO 2303/2312 15003G08MPS 0400 FZDZ FZFG VV001 
     BECMG 2312/2313 30003G09MPS 
     TEMPO 2313/2403 3100 -SNRA BKN011
       
UEEE 230330Z 00000MPS 1500 R23L/1500U BR NSC M36/M40 Q1018 R23L/490150 NOSIG RMK QFE755
TAF UEEE 230200Z 2303/2409 VRB01MPS 0500 FG VV004 
     TEMPO 2303/2312 1500 BR SCT020 BKN100
       
UHPP 230330Z 34003MPS 9999 SCT030CB M03/M04 Q1019 R34L/490260 NOSIG RMK MT OBSC QFE760/1014
TAF UHPP 230159Z 2303/2409 17005G15MPS 9999 BKN020CB 
     TEMPO 2303/2309 3100 -SHSNRA BR BKN004 OVC015CB 
     FM230900 16007G17MPS 3100 -SHRA BKN011 OVC020CB 
     TEMPO 2309/2322 15010G20MPS 0700 +SHSNRA VV002 
     TEMPO 2322/2409 12017G25MPS 1000 SHSNRA VV003